WEATHER DATA

YESTERDAY
Time Temp. Dewp. Hum. Wind dir Wind speed Wind gust Bar. 1h Prec. 24h Prec.
00:08 3.8 -2.7 61 0 0.3 1028.7 0.0000 0.0000
00:19 3.7 -2.8 61 0 0.6 1028.7 0.0000 0.0000
00:29 3.6 -2.8 61 0 0.3 1028.6 0.0000 0.0000
00:39 3.6 -2.8 61 0 0.6 1028.6 0.0000 0.0000
00:48 3.6 -2.6 62 0 0.6 1028.6 0.0000 0.0000
00:59 3.6 -2.8 61 0 0.6 1028.5 0.0000 0.0000
01:09 3.6 -3 60 0 0.3 1028.5 0.0000 0.0000
01:19 3.6 -3 60 0 0.6 1028.5 0.0000 0.0000
01:29 3.6 -3 60 0 0.3 1028.3 0.0000 0.0000
01:40 3.6 -3 60 0 0.6 1028.2 0.0000 0.0000
01:50 3.6 -2.8 61 0 0.3 1028 0.0000 0.0000
01:59 3.5 -2.9 61 0 0.3 1028 0.0000 0.0000
02:10 3.5 -2.9 61 198 0.3 0.6 1028 0.0000 0.0000
02:20 3.5 -2.9 61 191 0.3 0.3 1027.9 0.0000 0.0000
02:30 3.4 -3 61 0 0.6 1028 0.0000 0.0000
02:40 3.3 -3.1 61 0 0.6 1027.8 0.0000 0.0000
02:51 3.3 -3.1 61 0 0.3 1027.7 0.0000 0.0000
03:00 3.3 -3.1 61 0 0.3 1027.6 0.0000 0.0000
03:10 3.1 -3.3 61 0 0.6 1027.5 0.0000 0.0000
03:21 3 -3.2 62 216 0.3 0.6 1027.4 0.0000 0.0000
03:31 3 -3.2 62 206 0.3 0.6 1027.2 0.0000 0.0000
03:41 3 -3.2 62 0 0.6 1027.2 0.0000 0.0000
03:53 2.9 -3.2 62 225 0.3 0.6 1027.1 0.0000 0.0000
04:02 2.8 -3.3 62 270 0.3 0.6 1027 0.0000 0.0000
04:13 2.6 -3.3 63 225 0.3 0.6 1026.9 0.0000 0.0000
04:23 2.5 -3.4 63 225 0.3 0.6 1026.8 0.0000 0.0000
04:33 2.4 -3.5 63 225 0.3 0.6 1026.7 0.0000 0.0000
04:43 2.3 -3.6 63 236 0.3 0.6 1026.6 0.0000 0.0000
04:54 2.3 -3.4 64 225 0.3 0.6 1026.5 0.0000 0.0000
05:03 2.2 -3.4 64 209 0.3 0.8 1026.4 0.0000 0.0000
05:13 2.1 -3.5 64 0 0.6 1026.1 0.0000 0.0000
05:24 2.1 -3.5 64 0 0.6 1026 0.0000 0.0000
05:34 2.1 -3.5 64 0 0.6 1026 0.0000 0.0000
05:44 2 -3.6 64 0 0.6 1025.9 0.0000 0.0000
05:54 4.2 -1 68 225 0.3 0.6 1025.8 0.0000 0.0000
06:04 3.8 -2.9 60 270 0.3 0.6 1025.7 0.0000 0.0000
06:14 3.4 -3 61 270 0.3 0.8 1025.7 0.0000 0.0000
06:24 4.4 -2.2 61 270 0.3 0.8 1025.7 0.0000 0.0000
06:34 3.7 -3 60 270 0.3 0.8 1025.6 0.0000 0.0000
06:45 4.1 -2.4 61 270 0.3 0.8 1025.7 0.0000 0.0000
06:55 3.8 -2.7 61 236 0.3 0.6 1025.6 0.0000 0.0000
07:04 3.5 -2.9 61 233 0.3 0.6 1025.6 0.0000 0.0000
07:15 3.3 -2.9 62 240 0.3 0.6 1025.6 0.0000 0.0000
07:25 3.2 -3 62 229 0.3 0.6 1025.6 0.0000 0.0000
07:35 3 -3 63 233 0.3 0.6 1025.5 0.0000 0.0000
07:45 2.9 -3 63 237 0.3 0.8 1025.6 0.0000 0.0000
07:56 2.7 -3 64 232 0.3 0.8 1025.6 0.0000 0.0000
08:06 2.7 -3 64 229 0.3 0.6 1025.7 0.0000 0.0000
08:15 2.7 -3 64 229 0.3 0.6 1025.7 0.0000 0.0000
08:26 2.7 -3 64 225 0.3 0.6 1025.8 0.0000 0.0000
08:36 2.9 -2.9 64 231 0.3 0.6 1025.8 0.0000 0.0000
08:46 2.8 -2.9 64 235 0.3 0.8 1025.7 0.0000 0.0000
08:56 2.8 -2.9 64 233 0.3 0.8 1025.7 0.0000 0.0000
09:07 2.9 -2.7 65 236 0.3 0.6 1025.6 0.0000 0.0000
09:16 3 -2.6 65 236 0.3 0.6 1025.6 0.0000 0.0000
09:26 3.1 -2.5 65 270 0.3 0.6 1025.5 0.0000 0.0000
09:37 3.3 -2.3 65 270 0.3 0.6 1025.4 0.0000 0.0000
09:47 3.5 -2.4 64 0 0.3 1025.3 0.0000 0.0000
09:57 3.5 -2.4 64 0 0.6 1025.4 0.0000 0.0000
10:07 3.5 -2.4 64 0 0.6 1025.3 0.0000 0.0000
10:17 3.5 -2.2 65 0 0.6 1025.3 0.0000 0.0000
10:27 3.5 -2.2 65 0 0.3 1025.3 0.0000 0.0000
10:37 3.5 -2 66 270 0.6 1.1 1025.3 0.0000 0.0000
10:47 3.5 -2 66 229 0.3 1.1 1025.2 0.0000 0.0000
10:58 3.5 -1.8 67 235 0.3 0.8 1025.1 0.0000 0.0000
11:08 3.5 -1.8 67 233 0.3 0.8 1025.1 0.0000 0.0000
11:17 3.5 -1.8 67 236 0.3 0.8 1025 0.0000 0.0000
11:28 3.6 -1.7 67 233 0.3 0.8 1024.9 0.0000 0.0000
11:38 3.7 -1.6 67 235 0.3 1.1 1024.8 0.0000 0.0000
11:48 3.9 -1.3 68 270 0.3 0.8 1024.7 0.0000 0.0000
11:58 4 -1.4 67 270 0.6 1.1 1024.5 0.0000 0.0000
12:08 4 -1.4 67 270 0.6 0.8 1024.4 0.0000 0.0000
12:18 3.9 -1.5 67 270 0.6 1.4 1024.1 0.0000 0.0000
12:28 3.9 -1.5 67 232 0.3 0.8 1024 0.0000 0.0000
12:39 3.8 -1.6 67 232 0.3 0.8 1024 0.0000 0.0000
12:48 3.9 -1.5 67 237 0.3 1.1 1023.9 0.0000 0.0000
12:58 3.9 -1.5 67 270 0.3 1.1 1023.8 0.0000 0.0000
13:08 4 -1.2 68 270 0.3 0.8 1023.7 0.0000 0.0000
13:19 4.1 -1.3 67 270 0.3 0.8 1023.5 0.0000 0.0000
13:29 4.1 -1.3 67 270 0.3 0.8 1023.3 0.0000 0.0000
13:38 4.2 -1.2 67 270 0.3 0.6 1023.2 0.0000 0.0000
13:49 4.4 -1 67 218 0.3 0.6 1022.9 0.0000 0.0000
13:59 4.5 -1 67 0 0.3 1022.8 0.0000 0.0000
14:09 4.7 -0.8 67 0 0.3 1022.6 0.0000 0.0000
14:19 4.7 -0.8 67 213 0.3 0.6 1022.5 0.0000 0.0000
14:29 4.8 -0.7 67 225 0.3 0.6 1022.4 0.0000 0.0000
14:39 4.9 -0.6 67 218 0.3 0.6 1022.1 0.0000 0.0000
14:49 5 -0.7 66 225 0.3 0.6 1021.9 0.0000 0.0000
15:00 5.1 -0.6 66 0 0.3 1021.7 0.0000 0.0000
15:09 5.2 -0.6 66 0 0.3 1021.5 0.0000 0.0000
15:19 5.3 -0.5 66 0 0.3 1021.3 0.0000 0.0000
15:29 5.4 -0.6 65 0 0.3 1021.2 0.0000 0.0000
15:40 5.5 -0.5 65 0 0.3 1021 0.0000 0.0000
15:50 5.5 -0.5 65 270 0.3 0.8 1020.9 0.0000 0.0000
15:59 5.5 -0.5 65 270 0.3 0.8 1020.8 0.0000 0.0000
16:10 5.5 -0.5 65 270 0.3 0.6 1020.7 0.0000 0.0000
16:20 5.4 -0.6 65 233 0.3 0.6 1020.6 0.0000 0.0000
16:30 5.4 -0.6 65 0 0.3 1020.6 0.0000 0.0000
16:40 5.4 -0.6 65 225 0.3 0.8 1020.6 0.0000 0.0000
16:50 5.3 -0.7 65 212 0.3 0.8 1020.5 0.0000 0.0000
17:00 5.2 -0.7 65 204 0.3 0.6 1020.6 0.0000 0.0000
17:10 6.9 0.8 65 0 0.6 1020.7 0.0000 0.0000
17:21 6.4 -0.5 61 0 0.6 1020.7 0.0000 0.0000
17:30 6.1 -0.4 63 216 0.3 0.6 1020.9 0.0000 0.0000
17:40 7.3 -0.2 59 270 0.3 0.8 1020.6 0.0000 0.0000
17:50 6.7 -0.4 60 231 0.3 0.6 1020.7 0.0000 0.0000
18:01 8.2 0.2 57 234 0.3 0.6 1020.7 0.0000 0.0000
18:11 7.2 -0.4 58 0 0.6 1020.7 0.0000 0.0000
18:20 6.6 -0.7 59 206 0.3 0.6 1020.7 0.0000 0.0000
18:31 6.1 -0.9 60 0 0.6 1020.8 0.0000 0.0000
18:41 5.7 -1.3 60 225 0.3 0.8 1020.9 0.0000 0.0000
18:51 7.5 -0.4 57 225 0.3 0.6 1020.8 0.0000 0.0000
19:01 6.6 -1.2 57 233 0.3 0.8 1020.8 0.0000 0.0000
19:11 6 -1.4 58 237 0.3 0.8 1020.7 0.0000 0.0000
19:21 5.5 -1.4 60 229 0.3 0.8 1020.7 0.0000 0.0000
19:31 5.2 -1.1 63 225 0.3 0.6 1021 0.0000 0.0000
19:41 6.5 -1 58 225 0.3 0.6 1020.8 0.0000 0.0000
19:52 5.8 -1.4 59 225 0.3 0.8 1020.7 0.0000 0.0000
20:01 5.3 -1.6 60 230 0.3 0.8 1020.6 0.0000 0.0000
20:11 4.9 -1.8 61 236 0.3 0.8 1020.6 0.0000 0.0000
20:22 4.6 -1.6 63 239 0.3 0.6 1020.7 0.0000 0.0000
20:32 5.9 -1.1 60 270 0.3 0.8 1020.5 0.0000 0.0000
20:42 5.3 -1.4 61 270 0.3 0.8 1020.3 0.0000 0.0000
20:52 4.8 -1.6 62 231 0.3 0.6 1020.3 0.0000 0.0000
21:02 5.3 -0.5 66 270 0.3 0.8 1020.5 0.0000 0.0000
21:12 5.4 -1.5 60 270 0.3 0.8 1020.3 0.0000 0.0000
21:22 4.9 -1.8 61 270 0.6 0.8 1020.5 0.0000 0.0000
21:33 6 -0.6 62 270 0.3 0.8 1020.5 0.0000 0.0000
21:42 5.5 -1.6 59 270 0.3 0.8 1020.3 0.0000 0.0000
21:52 5 -1.9 60 270 0.3 0.8 1020.3 0.0000 0.0000
22:02 4.6 -2.2 60 270 0.3 0.8 1020.2 0.0000 0.0000
22:13 5.4 -0.4 66 270 0.3 0.8 1020.6 0.0000 0.0000
22:22 5.8 -1.6 58 0 0.6 1020.3 0.0000 0.0000
22:32 5.1 -2 59 234 0.3 0.6 1020.3 0.0000 0.0000
22:43 4.6 -2.2 60 270 0.3 0.8 1020.3 0.0000 0.0000
22:53 4.3 -2.3 61 270 0.3 0.6 1020.3 0.0000 0.0000
23:03 5.6 -1.8 58 320 0.3 0.8 1020.3 0.0000 0.0000
23:13 4.8 -2.2 59 353 0.3 0.6 1020.3 0.0000 0.0000
23:23 4.3 -2.5 60 0 0.6 1020.3 0.0000 0.0000
23:33 3.8 -2.7 61 270 0.3 0.6 1020.3 0.0000 0.0000
23:43 3.6 -2.6 62 0 0.6 1020.2 0.0000 0.0000
23:54 3.3 -2.7 63 0 0.6 1020.2 0.0000 0.0000

DAY STATISTIC

2020-01-23
TEMPERATURE
AVERAGE
4.2
HIGH
8.2
18:01
LOW
2.0
05:44
PRESSURE
AVERAGE
1023.8
HIGH
1028.7
00:08
LOW
1020.2
22:02
DEWPOINT
AVERAGE
-2.0
HIGH
0.8
17:10
LOW
-3.6
04:43
HUMIDITY
AVERAGE
63
HIGH
68
05:54
LOW
57
18:01
WIND SPEED
AVERAGE
0.2
HIGH
0.6
10:37
WIND GUST
AVERAGE
0.6
HIGH
1.4
12:18
WIND DIRECTION
PREVAILING
SW
41.5%
N
0.7
NE
0.0
E
0.0
SE
0.0
S
2.1
SW
41.5
W
24.6
NW
0.7
PRECIPITATION
RAIN HOUR
0.0
RAIN DAY
0.0
TEMPERATURE (°C)
LOW
2.0
HIGH
8.2
AVERAGE
4.2
PRESSURE (hpa)
LOW
1020.2
HIGH
1028.7
AVERAGE
1023.8
DEVICE